createdAt,value
2023-10-07T00:01:29.230Z,70.91
2023-10-07T00:03:59.971Z,70.95
2023-10-07T00:06:29.264Z,71.04
2023-10-07T00:08:59.414Z,70.97
2023-10-07T00:11:28.819Z,70.97
2023-10-07T00:13:57.361Z,71.07
2023-10-07T00:16:25.781Z,71.07
2023-10-07T00:18:55.328Z,71.05
2023-10-07T00:21:29.124Z,71.18
2023-10-07T00:23:58.841Z,71.25
2023-10-07T00:26:28.270Z,71.34
2023-10-07T00:29:02.334Z,71.54
2023-10-07T00:31:34.728Z,71.57
2023-10-07T00:34:23.848Z,71.62
2023-10-07T00:36:53.027Z,71.79
2023-10-07T00:39:23.339Z,71.88
2023-10-07T00:41:59.368Z,72.16
2023-10-07T00:44:34.350Z,72.33
2023-10-07T00:47:13.868Z,72.51
2023-10-07T00:49:43.628Z,72.67
2023-10-07T00:52:15.572Z,72.78
2023-10-07T00:54:48.550Z,72.78
2023-10-07T00:57:25.351Z,72.82
2023-10-07T00:59:52.939Z,72.97
2023-10-07T01:02:31.195Z,73.02
2023-10-07T01:05:08.037Z,73.15
2023-10-07T01:07:36.182Z,73.25
2023-10-07T01:10:09.659Z,73.35
2023-10-07T01:12:40.195Z,73.41
2023-10-07T01:18:06.697Z,73.36
2023-10-07T01:21:00.865Z,73.57
2023-10-07T01:23:34.743Z,73.61
2023-10-07T01:26:03.835Z,73.75
2023-10-07T01:28:34.063Z,73.89
2023-10-07T01:31:13.860Z,74.10
2023-10-07T01:33:51.130Z,74.14
2023-10-07T01:36:25.291Z,74.32
2023-10-07T01:38:53.114Z,74.50
2023-10-07T01:41:21.380Z,74.71
2023-10-07T01:44:02.189Z,74.96
2023-10-07T01:46:31.322Z,75.05
2023-10-07T01:49:05.393Z,75.22
2023-10-07T01:51:32.705Z,75.49
2023-10-07T01:54:04.631Z,75.75
2023-10-07T01:56:33.261Z,76.03
2023-10-07T01:59:11.314Z,76.16
2023-10-07T02:01:43.256Z,76.07
2023-10-07T02:04:29.709Z,76.09
2023-10-07T02:07:00.016Z,76.18
2023-10-07T02:09:28.877Z,76.16
2023-10-07T02:11:57.813Z,76.17
2023-10-07T02:14:26.806Z,76.25
2023-10-07T02:16:55.284Z,76.42
2023-10-07T02:19:30.458Z,76.52
2023-10-07T02:22:04.336Z,76.55
2023-10-07T02:24:32.800Z,76.52
2023-10-07T02:27:08.146Z,76.50
2023-10-07T02:29:36.061Z,76.32
2023-10-07T02:32:15.802Z,76.27
2023-10-07T02:35:00.430Z,76.18
2023-10-07T02:37:30.924Z,75.98
2023-10-07T02:40:17.634Z,75.76
2023-10-07T02:42:48.104Z,75.55
2023-10-07T02:45:18.509Z,75.43
2023-10-07T02:47:51.660Z,75.40
2023-10-07T02:50:19.387Z,75.21
2023-10-07T02:52:50.850Z,75.24
2023-10-07T02:55:18.305Z,75.30
2023-10-07T02:57:46.495Z,75.23
2023-10-07T03:00:30.781Z,75.16
2023-10-07T03:03:17.059Z,75.13
2023-10-07T03:05:47.256Z,75.23
2023-10-07T03:08:21.037Z,75.21
2023-10-07T03:11:06.589Z,75.17
2023-10-07T03:13:39.620Z,75.29
2023-10-07T03:16:11.141Z,75.37
2023-10-07T03:18:39.758Z,75.33
2023-10-07T03:21:15.432Z,75.27
2023-10-07T03:23:48.958Z,75.18
2023-10-07T03:26:19.486Z,75.12
2023-10-07T03:28:53.489Z,75.08
2023-10-07T03:31:22.070Z,75.00
2023-10-07T03:33:59.393Z,74.89
2023-10-07T03:36:39.299Z,74.87
2023-10-07T03:39:15.587Z,74.70
2023-10-07T03:41:53.598Z,74.40
2023-10-07T03:44:22.071Z,74.17
2023-10-07T03:46:50.857Z,74.07
2023-10-07T03:49:22.353Z,74.06
2023-10-07T03:52:00.765Z,73.92
2023-10-07T03:54:30.935Z,73.82
2023-10-07T03:56:58.620Z,73.69
2023-10-07T03:59:26.965Z,73.63
2023-10-07T04:01:55.288Z,73.58
2023-10-07T04:04:23.705Z,73.59
2023-10-07T04:06:51.916Z,73.35
2023-10-07T04:09:19.585Z,73.10
2023-10-07T04:11:49.730Z,72.91
2023-10-07T04:14:20.922Z,72.83
2023-10-07T04:16:51.892Z,72.53
2023-10-07T04:19:19.899Z,72.40
2023-10-07T04:21:47.139Z,72.35
2023-10-07T04:24:14.566Z,72.16
2023-10-07T04:26:58.475Z,72.07
2023-10-07T04:29:28.007Z,71.86
2023-10-07T04:31:56.059Z,71.58
2023-10-07T04:34:23.618Z,71.43
2023-10-07T04:37:03.917Z,71.34
2023-10-07T04:39:47.440Z,71.18
2023-10-07T04:42:22.632Z,71.06
2023-10-07T04:44:53.354Z,70.86
2023-10-07T04:47:29.917Z,70.81
2023-10-07T04:50:06.533Z,70.65
2023-10-07T04:52:41.304Z,70.47
2023-10-07T04:55:14.836Z,70.44
2023-10-07T04:58:02.588Z,70.26
2023-10-07T05:00:32.483Z,70.21
2023-10-07T05:03:04.731Z,70.11
2023-10-07T05:05:34.444Z,70.08
2023-10-07T05:08:12.534Z,69.96
2023-10-07T05:10:42.583Z,69.89
2023-10-07T05:13:10.779Z,69.76
2023-10-07T05:15:43.200Z,69.84
2023-10-07T05:18:14.349Z,69.85
2023-10-07T05:20:43.319Z,69.75
2023-10-07T05:23:15.514Z,69.67
2023-10-07T05:25:52.371Z,69.71
2023-10-07T05:28:23.527Z,69.74
2023-10-07T05:30:51.948Z,69.63
2023-10-07T05:33:26.606Z,69.61
2023-10-07T05:36:00.759Z,69.56
2023-10-07T05:38:27.920Z,69.60
2023-10-07T05:41:00.332Z,69.43
2023-10-07T05:43:30.152Z,69.66
2023-10-07T05:45:57.477Z,69.97
2023-10-07T05:48:24.905Z,69.83
2023-10-07T05:50:54.848Z,70.02
2023-10-07T05:53:22.610Z,70.37
2023-10-07T05:55:50.305Z,70.77
2023-10-07T05:58:17.676Z,71.08
2023-10-07T06:00:46.929Z,71.57
2023-10-07T06:03:14.775Z,72.14
2023-10-07T06:05:43.437Z,72.66
2023-10-07T06:08:12.098Z,73.27
2023-10-07T06:10:39.966Z,73.83
2023-10-07T06:13:10.223Z,74.48
2023-10-07T06:15:40.965Z,74.80
2023-10-07T06:18:08.885Z,75.37
2023-10-07T06:20:39.262Z,75.95
2023-10-07T06:23:16.896Z,76.23
2023-10-07T06:25:54.192Z,76.35
2023-10-07T06:28:30.592Z,76.53
2023-10-07T06:31:26.467Z,76.79
2023-10-07T06:34:05.127Z,76.87
2023-10-07T06:36:33.258Z,77.02
2023-10-07T06:39:02.867Z,77.01
2023-10-07T06:41:30.605Z,77.11
2023-10-07T06:44:04.255Z,77.37
2023-10-07T06:46:46.178Z,77.72
2023-10-07T06:49:20.946Z,78.06
2023-10-07T06:51:55.265Z,78.34
2023-10-07T06:54:24.691Z,78.60
2023-10-07T06:56:55.622Z,78.78
2023-10-07T06:59:29.489Z,78.89
2023-10-07T07:01:58.140Z,79.06
2023-10-07T07:04:27.030Z,79.13
2023-10-07T07:07:12.574Z,79.28
2023-10-07T07:09:51.595Z,79.32
2023-10-07T07:12:22.801Z,79.35
2023-10-07T07:15:06.478Z,79.44
2023-10-07T07:17:37.263Z,79.71
2023-10-07T07:20:08.715Z,80.06
2023-10-07T07:22:40.219Z,80.04
2023-10-07T07:25:19.159Z,80.29
2023-10-07T07:27:49.401Z,80.11
2023-10-07T07:30:33.529Z,80.04
2023-10-07T07:33:16.590Z,80.28
2023-10-07T07:35:44.955Z,80.45
2023-10-07T07:38:21.787Z,80.39
2023-10-07T07:40:51.043Z,80.83
2023-10-07T07:43:20.928Z,80.88
2023-10-07T07:45:50.825Z,81.14
2023-10-07T07:48:18.198Z,81.38
2023-10-07T07:50:45.628Z,81.59
2023-10-07T07:53:14.289Z,81.79
2023-10-07T07:55:45.354Z,82.05
2023-10-07T07:58:12.712Z,82.37
2023-10-07T08:01:00.195Z,82.73
2023-10-07T08:03:27.775Z,83.13
2023-10-07T08:05:55.331Z,83.68
2023-10-07T08:08:30.957Z,83.93
2023-10-07T08:11:00.574Z,84.45
2023-10-07T08:13:29.017Z,84.87
2023-10-07T08:15:56.803Z,85.46
2023-10-07T08:18:30.331Z,85.79
2023-10-07T08:21:14.719Z,86.46
2023-10-07T08:23:42.206Z,86.91
2023-10-07T08:26:13.225Z,87.28
2023-10-07T08:29:00.313Z,87.54
2023-10-07T08:31:40.765Z,88.00
2023-10-07T08:34:09.168Z,88.06
2023-10-07T08:36:48.506Z,88.19
2023-10-07T08:39:20.708Z,88.23
2023-10-07T08:41:54.550Z,88.31
2023-10-07T08:44:29.841Z,88.54
2023-10-07T08:47:06.350Z,88.50
2023-10-07T08:49:37.293Z,88.63
2023-10-07T08:52:10.733Z,88.71
2023-10-07T08:54:45.939Z,88.71
2023-10-07T08:57:35.932Z,88.67
2023-10-07T09:00:12.589Z,88.81
2023-10-07T09:02:41.449Z,89.07
2023-10-07T09:05:17.175Z,89.53
2023-10-07T09:07:49.923Z,89.67
2023-10-07T09:10:18.766Z,89.21
2023-10-07T09:12:58.070Z,88.85
2023-10-07T09:15:29.929Z,88.58
2023-10-07T09:18:04.569Z,88.28
2023-10-07T09:20:32.978Z,87.88
2023-10-07T09:23:18.650Z,87.49
2023-10-07T09:25:48.612Z,86.41
2023-10-07T09:28:20.041Z,85.77
2023-10-07T09:30:49.718Z,84.92
2023-10-07T09:33:22.925Z,84.46
2023-10-07T09:36:11.453Z,84.03
2023-10-07T09:38:43.286Z,82.85
2023-10-07T09:41:14.598Z,82.46
2023-10-07T09:43:45.084Z,81.92
2023-10-07T09:46:18.260Z,81.12
2023-10-07T09:48:55.400Z,79.95
2023-10-07T09:51:30.111Z,79.75
2023-10-07T09:54:28.914Z,79.77
2023-10-07T09:57:31.154Z,80.03
2023-10-07T10:00:30.296Z,80.21
2023-10-07T10:03:16.908Z,80.62
2023-10-07T10:06:17.299Z,80.88
2023-10-07T10:08:58.515Z,80.56
2023-10-07T10:11:39.304Z,80.60
2023-10-07T10:14:13.200Z,80.31
2023-10-07T10:17:01.394Z,79.55
2023-10-07T10:19:30.711Z,79.03
2023-10-07T10:22:08.524Z,78.30
2023-10-07T10:24:38.306Z,77.69
2023-10-07T10:27:06.072Z,76.74
2023-10-07T10:29:38.157Z,75.39
2023-10-07T10:32:15.566Z,74.90
2023-10-07T10:34:44.112Z,73.90
2023-10-07T10:37:11.393Z,73.67
2023-10-07T10:39:42.308Z,73.51
2023-10-07T10:42:16.451Z,72.75
2023-10-07T10:44:48.718Z,72.17
2023-10-07T10:47:18.377Z,71.95
2023-10-07T10:49:46.242Z,71.34
2023-10-07T10:52:13.767Z,70.77
2023-10-07T10:54:41.094Z,70.20
2023-10-07T10:57:15.226Z,69.89
2023-10-07T10:59:44.142Z,69.59
2023-10-07T11:02:13.258Z,68.94
2023-10-07T11:04:41.757Z,68.51
2023-10-07T11:07:09.407Z,68.08
2023-10-07T11:09:40.460Z,67.75
2023-10-07T11:12:10.790Z,67.25
2023-10-07T11:14:39.616Z,66.52
2023-10-07T11:17:10.254Z,66.03
2023-10-07T11:19:44.640Z,66.14
2023-10-07T11:22:16.014Z,65.93
2023-10-07T11:24:43.339Z,65.40
2023-10-07T11:27:10.651Z,64.94
2023-10-07T11:29:37.865Z,64.95
2023-10-07T11:32:08.917Z,64.75
2023-10-07T11:34:38.596Z,64.76
2023-10-07T11:37:14.494Z,64.52
2023-10-07T11:39:46.465Z,64.33
2023-10-07T11:42:18.019Z,64.43
2023-10-07T11:44:49.658Z,63.98
2023-10-07T11:47:20.803Z,63.86
2023-10-07T11:49:48.792Z,63.87
2023-10-07T11:52:18.932Z,63.62
2023-10-07T11:54:50.116Z,64.01
2023-10-07T11:57:19.430Z,64.03
2023-10-07T11:59:47.210Z,63.94
2023-10-07T12:02:16.652Z,63.95
2023-10-07T12:04:49.625Z,64.10
2023-10-07T12:07:17.702Z,63.97
2023-10-07T12:09:49.912Z,64.12
2023-10-07T12:12:18.797Z,64.48
2023-10-07T12:14:49.042Z,64.54
2023-10-07T12:17:18.116Z,65.08
2023-10-07T12:19:45.964Z,65.39
2023-10-07T12:22:14.649Z,65.67
2023-10-07T12:24:45.084Z,66.10
2023-10-07T12:27:12.355Z,66.34
2023-10-07T12:29:40.258Z,66.85
2023-10-07T12:32:07.641Z,67.11
2023-10-07T12:34:35.314Z,67.25
2023-10-07T12:37:02.597Z,67.37
2023-10-07T12:39:39.103Z,67.26
2023-10-07T12:42:08.305Z,67.41
2023-10-07T12:44:36.237Z,67.21
2023-10-07T12:47:06.580Z,67.24
2023-10-07T12:49:34.253Z,67.03
2023-10-07T12:52:01.475Z,67.10
2023-10-07T12:54:28.671Z,67.17
2023-10-07T12:56:56.088Z,67.35
2023-10-07T12:59:24.580Z,67.51
2023-10-07T13:01:52.919Z,67.72
2023-10-07T13:04:20.878Z,67.84
2023-10-07T13:06:50.276Z,68.28
2023-10-07T13:09:17.989Z,68.39
2023-10-07T13:11:46.926Z,68.67
2023-10-07T13:14:16.178Z,69.00
2023-10-07T13:16:47.193Z,69.27
2023-10-07T13:19:18.218Z,69.52
2023-10-07T13:21:45.451Z,69.52
2023-10-07T13:24:13.216Z,69.61
2023-10-07T13:26:40.741Z,69.49
2023-10-07T13:29:12.232Z,69.46
2023-10-07T13:31:41.519Z,69.17
2023-10-07T13:35:52.927Z,69.01
2023-10-07T13:38:22.114Z,68.65
2023-10-07T13:40:50.347Z,68.37
2023-10-07T13:43:17.629Z,68.04
2023-10-07T13:45:47.214Z,67.56
2023-10-07T13:48:15.141Z,67.44
2023-10-07T13:50:42.504Z,66.93
2023-10-07T13:53:09.887Z,66.65
2023-10-07T13:55:43.179Z,66.34
2023-10-07T13:58:15.064Z,66.28
2023-10-07T14:00:55.700Z,65.96
2023-10-07T14:03:25.260Z,65.75
2023-10-07T14:05:56.635Z,65.56
2023-10-07T14:08:27.233Z,65.60
2023-10-07T14:10:58.091Z,65.60
2023-10-07T14:13:25.826Z,65.33
2023-10-07T14:15:57.663Z,65.34
2023-10-07T14:18:30.068Z,65.20
2023-10-07T14:20:58.689Z,65.20
2023-10-07T14:23:27.280Z,65.08
2023-10-07T14:25:56.249Z,65.10
2023-10-07T14:28:24.369Z,64.79
2023-10-07T14:30:52.844Z,64.72
2023-10-07T14:33:20.879Z,64.64
2023-10-07T14:35:48.821Z,64.65
2023-10-07T14:38:16.621Z,64.48
2023-10-07T14:40:45.431Z,64.21
2023-10-07T14:43:13.993Z,64.16
2023-10-07T14:45:51.372Z,63.87
2023-10-07T14:48:18.907Z,63.72
2023-10-07T14:50:46.886Z,63.63
2023-10-07T14:53:14.152Z,63.50
2023-10-07T14:55:47.680Z,63.47
2023-10-07T14:58:15.725Z,63.65
2023-10-07T15:00:54.364Z,63.55
2023-10-07T15:03:22.702Z,63.56
2023-10-07T15:05:50.135Z,63.33
2023-10-07T15:08:20.205Z,63.45
2023-10-07T15:10:50.168Z,63.53
2023-10-07T15:13:18.153Z,63.59
2023-10-07T15:15:48.294Z,63.43
2023-10-07T15:18:17.030Z,63.39
2023-10-07T15:20:44.671Z,63.27
2023-10-07T15:23:12.848Z,63.35
2023-10-07T15:25:49.780Z,63.33
2023-10-07T15:28:17.006Z,63.27
2023-10-07T15:30:49.041Z,63.24
2023-10-07T15:33:18.136Z,62.98
2023-10-07T15:35:45.544Z,62.80
2023-10-07T15:38:13.418Z,62.80
2023-10-07T15:40:41.722Z,62.76
2023-10-07T15:43:08.994Z,62.71
2023-10-07T15:45:44.733Z,62.73
2023-10-07T15:48:12.739Z,62.76
2023-10-07T15:50:40.346Z,62.73
2023-10-07T15:53:11.948Z,62.95
2023-10-07T15:55:39.898Z,62.95
2023-10-07T15:58:07.794Z,62.86
2023-10-07T16:00:35.569Z,62.99
2023-10-07T16:03:03.477Z,62.75
2023-10-07T16:05:35.376Z,63.14
2023-10-07T16:08:04.008Z,63.10
2023-10-07T16:10:31.291Z,63.23
2023-10-07T16:12:58.783Z,63.31
2023-10-07T16:15:29.021Z,63.35
2023-10-07T16:17:58.369Z,63.55
2023-10-07T16:20:26.032Z,63.58
2023-10-07T16:23:04.437Z,63.82
2023-10-07T16:25:32.934Z,63.98
2023-10-07T16:28:00.995Z,64.02
2023-10-07T16:30:31.352Z,64.13
2023-10-07T16:32:58.726Z,64.25
2023-10-07T16:35:26.126Z,64.26
2023-10-07T16:37:53.589Z,64.52
2023-10-07T16:40:20.900Z,64.48
2023-10-07T16:42:48.456Z,64.47
2023-10-07T16:45:15.660Z,64.61
2023-10-07T16:47:42.975Z,64.54
2023-10-07T16:50:10.881Z,64.64
2023-10-07T16:52:38.787Z,64.79
2023-10-07T16:55:09.365Z,64.86
2023-10-07T16:57:36.607Z,65.00
2023-10-07T17:00:06.022Z,65.00
2023-10-07T17:05:36.228Z,64.73
2023-10-07T17:08:06.471Z,64.91
2023-10-07T17:10:40.852Z,64.89
2023-10-07T17:13:10.944Z,64.76
2023-10-07T17:15:42.278Z,65.02
2023-10-07T17:18:11.170Z,65.56
2023-10-07T17:20:39.924Z,65.79
2023-10-07T17:23:08.619Z,66.24
2023-10-07T17:25:36.652Z,66.51
2023-10-07T17:28:04.803Z,66.72
2023-10-07T17:30:32.541Z,66.84
2023-10-07T17:33:03.157Z,67.05
2023-10-07T17:35:30.498Z,67.27
2023-10-07T17:37:57.895Z,67.23
2023-10-07T17:40:25.210Z,67.47
2023-10-07T17:42:53.045Z,67.44
2023-10-07T17:45:20.232Z,67.24
2023-10-07T17:47:47.909Z,67.06
2023-10-07T17:50:16.228Z,66.55
2023-10-07T17:52:43.669Z,66.19
2023-10-07T17:55:11.861Z,65.65
2023-10-07T17:57:40.155Z,64.88
2023-10-07T18:00:11.194Z,64.11
2023-10-07T18:02:43.345Z,62.95
2023-10-07T18:05:12.635Z,61.99
2023-10-07T18:07:44.246Z,60.94
2023-10-07T18:10:11.828Z,59.78
2023-10-07T18:12:40.604Z,59.46
2023-10-07T18:15:09.340Z,58.98
2023-10-07T18:17:36.689Z,58.70
2023-10-07T18:20:04.423Z,58.75
2023-10-07T18:22:31.618Z,59.01
2023-10-07T18:25:15.643Z,59.28
2023-10-07T18:27:43.546Z,59.54
2023-10-07T18:30:11.543Z,59.63
2023-10-07T18:32:39.733Z,60.03
2023-10-07T18:35:09.140Z,60.26
2023-10-07T18:37:36.758Z,60.53
2023-10-07T18:40:04.625Z,61.13
2023-10-07T18:42:31.896Z,61.77
2023-10-07T18:44:59.581Z,62.35
2023-10-07T18:47:27.445Z,62.70
2023-10-07T18:49:54.897Z,63.11
2023-10-07T18:52:23.611Z,63.53
2023-10-07T18:54:51.103Z,64.05
2023-10-07T18:57:18.476Z,64.64
2023-10-07T18:59:48.499Z,64.99
2023-10-07T19:02:15.994Z,65.51
2023-10-07T19:04:43.484Z,65.99
2023-10-07T19:07:11.216Z,66.09
2023-10-07T19:09:38.419Z,66.66
2023-10-07T19:12:06.251Z,67.16
2023-10-07T19:14:33.810Z,67.50
2023-10-07T19:17:01.344Z,67.92
2023-10-07T19:19:28.840Z,68.26
2023-10-07T19:21:57.819Z,68.50
2023-10-07T19:24:28.290Z,68.84
2023-10-07T19:26:55.612Z,69.07
2023-10-07T19:29:22.948Z,69.31
2023-10-07T19:31:50.312Z,69.49
2023-10-07T19:34:17.607Z,69.74
2023-10-07T19:36:46.334Z,70.00
2023-10-07T19:39:30.900Z,70.16
2023-10-07T19:42:04.200Z,70.19
2023-10-07T19:44:31.558Z,70.51
2023-10-07T19:46:59.099Z,70.57
2023-10-07T19:49:26.531Z,70.73
2023-10-07T19:51:53.726Z,70.78
2023-10-07T19:54:23.185Z,70.89
2023-10-07T19:56:51.556Z,70.89
2023-10-07T19:59:18.856Z,70.83
2023-10-07T20:01:46.291Z,70.97
2023-10-07T20:04:14.182Z,70.94
2023-10-07T20:06:42.567Z,70.90
2023-10-07T20:09:11.259Z,70.79
2023-10-07T20:11:39.003Z,70.90
2023-10-07T20:14:06.700Z,70.82
2023-10-07T20:16:34.835Z,70.62
2023-10-07T20:19:04.977Z,70.79
2023-10-07T20:21:32.511Z,70.74
2023-10-07T20:23:59.775Z,70.73
2023-10-07T20:26:28.330Z,70.76
2023-10-07T20:28:55.742Z,70.79
2023-10-07T20:31:23.021Z,70.75
2023-10-07T20:33:50.365Z,70.87
2023-10-07T20:36:17.579Z,71.03
2023-10-07T20:38:45.737Z,71.23
2023-10-07T20:41:13.856Z,71.27
2023-10-07T20:43:41.453Z,71.43
2023-10-07T20:46:08.896Z,71.75
2023-10-07T20:48:38.310Z,71.83
2023-10-07T20:51:15.512Z,72.04
2023-10-07T20:53:44.504Z,72.23
2023-10-07T20:56:15.568Z,72.23
2023-10-07T20:58:42.978Z,72.61
2023-10-07T21:01:21.392Z,72.67
2023-10-07T21:03:50.252Z,72.97
2023-10-07T21:06:21.644Z,73.03
2023-10-07T21:08:50.271Z,73.30
2023-10-07T21:11:18.672Z,73.48
2023-10-07T21:13:45.899Z,73.57
2023-10-07T21:16:13.234Z,73.78
2023-10-07T21:18:41.089Z,73.77
2023-10-07T21:21:15.478Z,74.12
2023-10-07T21:23:44.045Z,74.37
2023-10-07T21:26:16.421Z,74.29
2023-10-07T21:28:43.657Z,74.27
2023-10-07T21:31:10.915Z,74.37
2023-10-07T21:33:38.170Z,74.40
2023-10-07T21:36:05.726Z,74.15
2023-10-07T21:38:34.470Z,74.20
2023-10-07T21:41:01.831Z,74.22
2023-10-07T21:43:29.064Z,74.28
2023-10-07T21:45:56.346Z,74.30
2023-10-07T21:48:23.648Z,74.38
2023-10-07T21:50:50.875Z,74.20
2023-10-07T21:53:21.418Z,74.15
2023-10-07T21:55:48.768Z,74.04
2023-10-07T21:58:16.930Z,74.09
2023-10-07T22:00:44.296Z,74.15
2023-10-07T22:03:17.738Z,74.24
2023-10-07T22:05:46.079Z,74.21
2023-10-07T22:08:15.812Z,74.28
2023-10-07T22:10:45.455Z,74.46
2023-10-07T22:13:18.998Z,74.52
2023-10-07T22:16:01.683Z,74.85
2023-10-07T22:18:29.060Z,74.99
2023-10-07T22:20:56.943Z,75.21
2023-10-07T22:23:24.800Z,75.42
2023-10-07T22:25:53.113Z,75.59
2023-10-07T22:28:20.859Z,75.61
2023-10-07T22:33:26.784Z,76.12
2023-10-07T22:38:19.267Z,76.68
2023-10-07T22:40:53.019Z,77.00
2023-10-07T22:43:21.909Z,77.41
2023-10-07T22:45:50.247Z,77.70
2023-10-07T22:48:22.425Z,78.10
2023-10-07T22:51:01.327Z,78.57
2023-10-07T22:53:29.920Z,77.89
2023-10-07T22:56:00.692Z,77.87
2023-10-07T22:58:28.518Z,78.28
2023-10-07T23:00:59.044Z,78.84
2023-10-07T23:03:37.030Z,79.76
2023-10-07T23:06:16.224Z,80.59
2023-10-07T23:08:56.576Z,81.29
2023-10-07T23:11:28.630Z,81.73
2023-10-07T23:14:19.419Z,82.00
2023-10-07T23:16:53.983Z,81.92
2023-10-07T23:19:22.214Z,82.07
2023-10-07T23:21:52.318Z,82.21
2023-10-07T23:24:38.052Z,82.26
2023-10-07T23:27:13.390Z,82.16
2023-10-07T23:29:45.458Z,82.36
2023-10-07T23:32:24.249Z,82.23
2023-10-07T23:35:01.023Z,82.34
2023-10-07T23:37:31.500Z,82.58
2023-10-07T23:39:58.807Z,82.85
2023-10-07T23:42:26.627Z,83.26
2023-10-07T23:44:55.921Z,83.56
2023-10-07T23:47:26.349Z,83.96
2023-10-07T23:49:58.707Z,84.49
2023-10-07T23:52:26.872Z,84.66
2023-10-07T23:55:00.285Z,85.05
2023-10-07T23:57:31.385Z,85.26
2023-10-07T23:59:59.206Z,85.55
